sensor_id;sensor_type;location;lat;lon;timestamp;P1;durP1;ratioP1;P2;durP2;ratioP2
47796;SDS011;33558;50.922;14.068;2022-11-06T04:45:19;9.80;;;5.30;;
47796;SDS011;33558;50.922;14.068;2022-11-06T04:47:47;9.73;;;5.47;;
47796;SDS011;33558;50.922;14.068;2022-11-06T04:50:15;8.27;;;5.53;;
47796;SDS011;33558;50.922;14.068;2022-11-06T04:52:44;8.33;;;5.00;;
47796;SDS011;33558;50.922;14.068;2022-11-06T04:58:47;9.13;;;5.70;;
47796;SDS011;33558;50.922;14.068;2022-11-06T05:01:15;9.00;;;5.90;;
47796;SDS011;33558;50.922;14.068;2022-11-06T05:03:42;10.67;;;6.60;;
47796;SDS011;33558;50.922;14.068;2022-11-06T05:08:51;11.37;;;6.70;;
47796;SDS011;33558;50.922;14.068;2022-11-06T05:11:18;12.30;;;7.10;;
47796;SDS011;33558;50.922;14.068;2022-11-06T05:13:45;12.60;;;7.40;;
47796;SDS011;33558;50.922;14.068;2022-11-06T05:16:12;10.87;;;6.87;;
47796;SDS011;33558;50.922;14.068;2022-11-06T05:18:40;9.20;;;6.47;;
47796;SDS011;33558;50.922;14.068;2022-11-06T05:21:08;9.63;;;6.90;;
47796;SDS011;33558;50.922;14.068;2022-11-06T05:23:52;9.73;;;6.60;;
47796;SDS011;33558;50.922;14.068;2022-11-06T05:26:19;11.20;;;7.37;;
47796;SDS011;33558;50.922;14.068;2022-11-06T05:28:46;10.57;;;7.33;;
47796;SDS011;33558;50.922;14.068;2022-11-06T05:31:13;10.43;;;6.93;;
47796;SDS011;33558;50.922;14.068;2022-11-06T05:33:41;12.37;;;7.20;;
47796;SDS011;33558;50.922;14.068;2022-11-06T05:36:08;12.67;;;7.70;;
47796;SDS011;33558;50.922;14.068;2022-11-06T05:38:35;15.53;;;7.50;;
47796;SDS011;33558;50.922;14.068;2022-11-06T05:41:02;11.07;;;7.60;;
47796;SDS011;33558;50.922;14.068;2022-11-06T05:43:28;12.47;;;7.57;;
47796;SDS011;33558;50.922;14.068;2022-11-06T05:45:55;12.10;;;7.87;;
47796;SDS011;33558;50.922;14.068;2022-11-06T05:48:22;12.67;;;7.00;;
47796;SDS011;33558;50.922;14.068;2022-11-06T05:50:50;11.13;;;7.50;;
47796;SDS011;33558;50.922;14.068;2022-11-06T05:53:17;11.23;;;7.50;;
47796;SDS011;33558;50.922;14.068;2022-11-06T05:55:44;11.97;;;7.77;;
47796;SDS011;33558;50.922;14.068;2022-11-06T05:58:11;12.77;;;7.33;;
47796;SDS011;33558;50.922;14.068;2022-11-06T06:00:38;13.03;;;7.97;;
47796;SDS011;33558;50.922;14.068;2022-11-06T06:03:04;14.13;;;7.20;;
47796;SDS011;33558;50.922;14.068;2022-11-06T06:05:31;13.03;;;8.00;;
47796;SDS011;33558;50.922;14.068;2022-11-06T06:07:59;11.63;;;7.80;;
47796;SDS011;33558;50.922;14.068;2022-11-06T06:10:26;12.07;;;6.93;;
47796;SDS011;33558;50.922;14.068;2022-11-06T06:12:53;12.50;;;8.07;;
47796;SDS011;33558;50.922;14.068;2022-11-06T06:15:19;12.30;;;7.97;;
47796;SDS011;33558;50.922;14.068;2022-11-06T06:17:46;11.87;;;7.90;;
47796;SDS011;33558;50.922;14.068;2022-11-06T06:20:13;12.60;;;8.17;;
47796;SDS011;33558;50.922;14.068;2022-11-06T06:22:40;10.40;;;6.97;;
47796;SDS011;33558;50.922;14.068;2022-11-06T06:25:08;10.47;;;7.50;;
47796;SDS011;33558;50.922;14.068;2022-11-06T06:27:36;8.13;;;5.97;;
47796;SDS011;33558;50.922;14.068;2022-11-06T06:30:03;11.57;;;6.80;;
47796;SDS011;33558;50.922;14.068;2022-11-06T06:32:31;10.37;;;7.17;;
47796;SDS011;33558;50.922;14.068;2022-11-06T06:34:58;10.97;;;6.83;;
47796;SDS011;33558;50.922;14.068;2022-11-06T06:37:25;12.10;;;7.57;;
47796;SDS011;33558;50.922;14.068;2022-11-06T06:39:52;11.20;;;7.70;;
47796;SDS011;33558;50.922;14.068;2022-11-06T06:42:20;12.23;;;8.17;;
47796;SDS011;33558;50.922;14.068;2022-11-06T06:44:46;11.33;;;7.63;;
47796;SDS011;33558;50.922;14.068;2022-11-06T06:47:13;12.50;;;8.03;;
47796;SDS011;33558;50.922;14.068;2022-11-06T06:49:41;13.23;;;8.57;;
47796;SDS011;33558;50.922;14.068;2022-11-06T06:52:07;13.60;;;9.33;;
47796;SDS011;33558;50.922;14.068;2022-11-06T06:54:34;13.90;;;8.43;;
47796;SDS011;33558;50.922;14.068;2022-11-06T06:57:01;12.80;;;9.17;;
47796;SDS011;33558;50.922;14.068;2022-11-06T06:59:31;13.87;;;8.67;;
47796;SDS011;33558;50.922;14.068;2022-11-06T07:01:58;15.77;;;8.67;;
47796;SDS011;33558;50.922;14.068;2022-11-06T07:04:25;13.80;;;8.83;;
47796;SDS011;33558;50.922;14.068;2022-11-06T07:06:52;16.13;;;8.03;;
47796;SDS011;33558;50.922;14.068;2022-11-06T07:09:19;14.47;;;8.83;;
47796;SDS011;33558;50.922;14.068;2022-11-06T07:11:45;13.90;;;8.80;;
47796;SDS011;33558;50.922;14.068;2022-11-06T07:14:12;12.93;;;8.33;;
47796;SDS011;33558;50.922;14.068;2022-11-06T07:16:40;14.63;;;8.80;;
47796;SDS011;33558;50.922;14.068;2022-11-06T07:19:07;14.27;;;8.70;;
47796;SDS011;33558;50.922;14.068;2022-11-06T07:21:34;13.53;;;8.13;;
47796;SDS011;33558;50.922;14.068;2022-11-06T07:24:01;14.13;;;8.70;;
47796;SDS011;33558;50.922;14.068;2022-11-06T07:26:27;13.93;;;9.23;;
47796;SDS011;33558;50.922;14.068;2022-11-06T07:28:54;15.57;;;9.33;;
47796;SDS011;33558;50.922;14.068;2022-11-06T07:31:21;14.80;;;9.83;;
47796;SDS011;33558;50.922;14.068;2022-11-06T07:33:49;15.90;;;10.40;;
47796;SDS011;33558;50.922;14.068;2022-11-06T07:36:16;15.63;;;10.73;;
47796;SDS011;33558;50.922;14.068;2022-11-06T07:38:42;17.20;;;9.93;;
47796;SDS011;33558;50.922;14.068;2022-11-06T07:41:10;16.73;;;10.53;;
47796;SDS011;33558;50.922;14.068;2022-11-06T07:43:37;15.23;;;9.73;;
47796;SDS011;33558;50.922;14.068;2022-11-06T07:46:05;14.57;;;10.23;;
47796;SDS011;33558;50.922;14.068;2022-11-06T07:48:33;14.23;;;9.00;;
47796;SDS011;33558;50.922;14.068;2022-11-06T07:51:02;19.13;;;11.20;;
47796;SDS011;33558;50.922;14.068;2022-11-06T07:53:30;17.80;;;10.83;;
47796;SDS011;33558;50.922;14.068;2022-11-06T07:55:57;15.17;;;9.30;;
47796;SDS011;33558;50.922;14.068;2022-11-06T07:58:24;15.70;;;10.33;;
47796;SDS011;33558;50.922;14.068;2022-11-06T08:00:51;14.20;;;9.30;;
47796;SDS011;33558;50.922;14.068;2022-11-06T08:03:18;15.53;;;10.63;;
47796;SDS011;33558;50.922;14.068;2022-11-06T08:05:45;16.90;;;10.70;;
47796;SDS011;33558;50.922;14.068;2022-11-06T08:08:14;17.53;;;11.53;;
47796;SDS011;33558;50.922;14.068;2022-11-06T08:10:40;17.27;;;11.63;;
47796;SDS011;33558;50.922;14.068;2022-11-06T08:13:07;24.50;;;11.70;;
47796;SDS011;33558;50.922;14.068;2022-11-06T08:15:35;19.60;;;12.50;;
47796;SDS011;33558;50.922;14.068;2022-11-06T08:18:03;21.80;;;13.70;;
47796;SDS011;33558;50.922;14.068;2022-11-06T08:20:29;22.37;;;14.37;;
47796;SDS011;33558;50.922;14.068;2022-11-06T08:22:57;20.83;;;13.47;;
47796;SDS011;33558;50.922;14.068;2022-11-06T08:25:26;19.37;;;13.27;;
47796;SDS011;33558;50.922;14.068;2022-11-06T08:27:53;23.17;;;13.30;;
47796;SDS011;33558;50.922;14.068;2022-11-06T08:30:20;18.77;;;12.80;;
47796;SDS011;33558;50.922;14.068;2022-11-06T08:32:47;22.10;;;13.43;;
47796;SDS011;33558;50.922;14.068;2022-11-06T08:35:14;20.83;;;12.90;;
47796;SDS011;33558;50.922;14.068;2022-11-06T08:37:41;20.17;;;13.07;;
47796;SDS011;33558;50.922;14.068;2022-11-06T08:40:08;20.33;;;12.97;;
47796;SDS011;33558;50.922;14.068;2022-11-06T08:42:37;18.77;;;12.13;;
47796;SDS011;33558;50.922;14.068;2022-11-06T08:45:05;21.53;;;12.80;;
47796;SDS011;33558;50.922;14.068;2022-11-06T08:47:32;21.60;;;13.93;;
47796;SDS011;33558;50.922;14.068;2022-11-06T08:49:59;23.30;;;13.77;;
47796;SDS011;33558;50.922;14.068;2022-11-06T08:52:25;23.70;;;14.43;;
47796;SDS011;33558;50.922;14.068;2022-11-06T08:54:52;21.63;;;12.87;;
47796;SDS011;33558;50.922;14.068;2022-11-06T08:57:19;20.67;;;12.43;;
47796;SDS011;33558;50.922;14.068;2022-11-06T08:59:47;21.03;;;12.33;;
47796;SDS011;33558;50.922;14.068;2022-11-06T09:02:14;23.33;;;13.77;;
47796;SDS011;33558;50.922;14.068;2022-11-06T09:04:40;19.60;;;12.83;;
47796;SDS011;33558;50.922;14.068;2022-11-06T09:07:07;24.00;;;13.20;;
47796;SDS011;33558;50.922;14.068;2022-11-06T09:09:34;20.87;;;13.00;;
47796;SDS011;33558;50.922;14.068;2022-11-06T09:12:01;19.10;;;11.97;;
47796;SDS011;33558;50.922;14.068;2022-11-06T09:14:28;18.93;;;12.37;;
47796;SDS011;33558;50.922;14.068;2022-11-06T09:16:56;20.33;;;12.80;;
47796;SDS011;33558;50.922;14.068;2022-11-06T09:19:23;19.17;;;12.23;;
47796;SDS011;33558;50.922;14.068;2022-11-06T09:21:50;22.10;;;12.67;;
47796;SDS011;33558;50.922;14.068;2022-11-06T09:24:17;16.57;;;11.57;;
47796;SDS011;33558;50.922;14.068;2022-11-06T09:26:43;17.53;;;12.00;;
47796;SDS011;33558;50.922;14.068;2022-11-06T09:29:11;18.10;;;11.17;;
47796;SDS011;33558;50.922;14.068;2022-11-06T09:31:38;17.80;;;11.13;;
47796;SDS011;33558;50.922;14.068;2022-11-06T09:34:08;25.97;;;10.67;;
47796;SDS011;33558;50.922;14.068;2022-11-06T09:36:35;18.00;;;11.33;;
47796;SDS011;33558;50.922;14.068;2022-11-06T09:39:02;14.83;;;10.10;;
47796;SDS011;33558;50.922;14.068;2022-11-06T09:41:30;17.70;;;10.70;;
47796;SDS011;33558;50.922;14.068;2022-11-06T09:44:07;13.70;;;9.07;;
47796;SDS011;33558;50.922;14.068;2022-11-06T09:46:45;18.33;;;10.33;;
47796;SDS011;33558;50.922;14.068;2022-11-06T09:49:17;16.00;;;10.00;;
47796;SDS011;33558;50.922;14.068;2022-11-06T09:51:47;17.70;;;11.23;;
47796;SDS011;33558;50.922;14.068;2022-11-06T09:54:18;13.87;;;9.93;;
47796;SDS011;33558;50.922;14.068;2022-11-06T09:56:48;17.17;;;10.27;;
47796;SDS011;33558;50.922;14.068;2022-11-06T09:59:18;15.33;;;9.40;;
47796;SDS011;33558;50.922;14.068;2022-11-06T10:01:46;15.37;;;9.60;;
47796;SDS011;33558;50.922;14.068;2022-11-06T10:04:22;14.07;;;9.20;;
47796;SDS011;33558;50.922;14.068;2022-11-06T10:06:52;12.73;;;8.60;;
47796;SDS011;33558;50.922;14.068;2022-11-06T10:09:19;11.87;;;8.83;;
47796;SDS011;33558;50.922;14.068;2022-11-06T10:11:57;13.03;;;9.33;;
47796;SDS011;33558;50.922;14.068;2022-11-06T10:14:30;13.70;;;8.37;;
47796;SDS011;33558;50.922;14.068;2022-11-06T10:17:09;13.60;;;8.73;;
47796;SDS011;33558;50.922;14.068;2022-11-06T10:19:43;12.93;;;8.50;;
47796;SDS011;33558;50.922;14.068;2022-11-06T10:22:16;12.30;;;7.67;;
47796;SDS011;33558;50.922;14.068;2022-11-06T10:24:44;11.83;;;7.57;;
47796;SDS011;33558;50.922;14.068;2022-11-06T10:27:14;9.70;;;7.20;;
47796;SDS011;33558;50.922;14.068;2022-11-06T10:32:40;11.43;;;7.57;;
47796;SDS011;33558;50.922;14.068;2022-11-06T10:35:20;10.20;;;6.40;;
47796;SDS011;33558;50.922;14.068;2022-11-06T10:37:49;8.77;;;6.53;;
47796;SDS011;33558;50.922;14.068;2022-11-06T10:40:20;10.10;;;6.23;;
47796;SDS011;33558;50.922;14.068;2022-11-06T10:42:51;9.33;;;6.13;;
47796;SDS011;33558;50.922;14.068;2022-11-06T16:47:15;18.53;;;12.17;;
47796;SDS011;33558;50.922;14.068;2022-11-06T16:49:43;22.27;;;14.03;;
47796;SDS011;33558;50.922;14.068;2022-11-06T16:52:18;21.30;;;13.53;;
47796;SDS011;33558;50.922;14.068;2022-11-06T16:57:14;23.83;;;15.60;;
47796;SDS011;33558;50.922;14.068;2022-11-06T16:59:43;26.13;;;15.77;;
47796;SDS011;33558;50.922;14.068;2022-11-06T17:02:19;23.67;;;16.67;;
47796;SDS011;33558;50.922;14.068;2022-11-06T17:04:46;20.87;;;13.40;;
47796;SDS011;33558;50.922;14.068;2022-11-06T17:07:17;22.20;;;13.53;;
47796;SDS011;33558;50.922;14.068;2022-11-06T17:09:45;21.53;;;14.03;;
47796;SDS011;33558;50.922;14.068;2022-11-06T17:12:13;32.40;;;24.37;;
47796;SDS011;33558;50.922;14.068;2022-11-06T17:14:43;28.37;;;18.63;;
47796;SDS011;33558;50.922;14.068;2022-11-06T17:17:24;25.60;;;18.43;;
47796;SDS011;33558;50.922;14.068;2022-11-06T17:19:51;26.20;;;15.67;;
47796;SDS011;33558;50.922;14.068;2022-11-06T17:22:18;26.30;;;15.73;;
47796;SDS011;33558;50.922;14.068;2022-11-06T17:24:45;24.23;;;14.50;;
47796;SDS011;33558;50.922;14.068;2022-11-06T17:27:11;27.97;;;18.07;;
47796;SDS011;33558;50.922;14.068;2022-11-06T17:29:38;25.97;;;15.83;;
47796;SDS011;33558;50.922;14.068;2022-11-06T17:32:05;24.33;;;15.73;;
47796;SDS011;33558;50.922;14.068;2022-11-06T17:34:33;28.37;;;15.37;;
47796;SDS011;33558;50.922;14.068;2022-11-06T17:37:00;23.27;;;13.97;;
47796;SDS011;33558;50.922;14.068;2022-11-06T17:39:26;26.10;;;14.70;;
47796;SDS011;33558;50.922;14.068;2022-11-06T17:41:53;24.47;;;14.80;;
47796;SDS011;33558;50.922;14.068;2022-11-06T17:44:20;24.27;;;15.03;;
47796;SDS011;33558;50.922;14.068;2022-11-06T17:46:47;27.27;;;16.10;;
47796;SDS011;33558;50.922;14.068;2022-11-06T17:49:14;24.33;;;15.47;;
47796;SDS011;33558;50.922;14.068;2022-11-06T17:51:42;26.47;;;17.13;;
47796;SDS011;33558;50.922;14.068;2022-11-06T17:54:22;25.93;;;14.70;;
47796;SDS011;33558;50.922;14.068;2022-11-06T17:56:51;26.30;;;15.83;;
47796;SDS011;33558;50.922;14.068;2022-11-06T17:59:18;25.67;;;15.70;;
47796;SDS011;33558;50.922;14.068;2022-11-06T18:01:45;26.40;;;16.13;;
47796;SDS011;33558;50.922;14.068;2022-11-06T18:04:14;24.30;;;14.63;;
47796;SDS011;33558;50.922;14.068;2022-11-06T18:06:43;23.97;;;15.30;;
47796;SDS011;33558;50.922;14.068;2022-11-06T18:09:11;22.97;;;13.77;;
47796;SDS011;33558;50.922;14.068;2022-11-06T18:11:39;22.60;;;13.97;;
47796;SDS011;33558;50.922;14.068;2022-11-06T18:14:05;22.23;;;14.30;;
47796;SDS011;33558;50.922;14.068;2022-11-06T18:16:33;23.70;;;14.50;;
47796;SDS011;33558;50.922;14.068;2022-11-06T18:19:02;24.87;;;15.23;;
47796;SDS011;33558;50.922;14.068;2022-11-06T18:21:31;25.70;;;15.07;;
47796;SDS011;33558;50.922;14.068;2022-11-06T18:23:59;25.57;;;16.53;;
47796;SDS011;33558;50.922;14.068;2022-11-06T18:26:26;24.77;;;15.00;;
47796;SDS011;33558;50.922;14.068;2022-11-06T18:28:53;22.83;;;14.63;;
47796;SDS011;33558;50.922;14.068;2022-11-06T18:31:20;28.90;;;18.27;;
47796;SDS011;33558;50.922;14.068;2022-11-06T18:33:47;23.90;;;15.37;;
47796;SDS011;33558;50.922;14.068;2022-11-06T18:36:14;24.33;;;15.13;;
47796;SDS011;33558;50.922;14.068;2022-11-06T18:38:41;23.83;;;14.50;;
47796;SDS011;33558;50.922;14.068;2022-11-06T18:41:10;26.13;;;16.77;;
47796;SDS011;33558;50.922;14.068;2022-11-06T18:43:38;28.93;;;15.80;;
47796;SDS011;33558;50.922;14.068;2022-11-06T18:46:05;28.03;;;17.00;;
47796;SDS011;33558;50.922;14.068;2022-11-06T18:48:33;25.23;;;16.30;;
47796;SDS011;33558;50.922;14.068;2022-11-06T18:51:03;24.07;;;15.47;;
47796;SDS011;33558;50.922;14.068;2022-11-06T18:53:31;23.97;;;15.13;;
47796;SDS011;33558;50.922;14.068;2022-11-06T18:55:58;25.10;;;14.43;;
47796;SDS011;33558;50.922;14.068;2022-11-06T18:58:26;24.43;;;14.30;;
47796;SDS011;33558;50.922;14.068;2022-11-06T19:00:53;26.23;;;15.17;;
47796;SDS011;33558;50.922;14.068;2022-11-06T19:03:20;27.43;;;15.93;;
47796;SDS011;33558;50.922;14.068;2022-11-06T19:05:47;25.90;;;14.50;;
47796;SDS011;33558;50.922;14.068;2022-11-06T19:08:15;25.27;;;14.30;;
47796;SDS011;33558;50.922;14.068;2022-11-06T19:10:41;25.10;;;14.37;;
47796;SDS011;33558;50.922;14.068;2022-11-06T19:13:08;25.17;;;14.87;;
47796;SDS011;33558;50.922;14.068;2022-11-06T19:15:37;23.13;;;14.73;;
47796;SDS011;33558;50.922;14.068;2022-11-06T19:18:04;24.90;;;15.83;;
47796;SDS011;33558;50.922;14.068;2022-11-06T19:20:30;26.20;;;16.00;;
47796;SDS011;33558;50.922;14.068;2022-11-06T19:22:57;28.23;;;16.63;;
47796;SDS011;33558;50.922;14.068;2022-11-06T19:25:24;29.80;;;17.13;;
47796;SDS011;33558;50.922;14.068;2022-11-06T19:27:52;27.50;;;16.97;;
47796;SDS011;33558;50.922;14.068;2022-11-06T19:30:19;26.80;;;15.37;;
47796;SDS011;33558;50.922;14.068;2022-11-06T19:32:47;25.20;;;15.23;;
47796;SDS011;33558;50.922;14.068;2022-11-06T19:35:14;26.40;;;15.87;;
47796;SDS011;33558;50.922;14.068;2022-11-06T19:37:42;25.73;;;15.80;;
47796;SDS011;33558;50.922;14.068;2022-11-06T19:40:09;30.97;;;17.23;;
47796;SDS011;33558;50.922;14.068;2022-11-06T19:42:36;30.63;;;17.23;;
47796;SDS011;33558;50.922;14.068;2022-11-06T19:45:03;27.77;;;17.43;;
47796;SDS011;33558;50.922;14.068;2022-11-06T19:47:32;27.77;;;16.50;;
47796;SDS011;33558;50.922;14.068;2022-11-06T19:50:00;29.13;;;16.27;;
47796;SDS011;33558;50.922;14.068;2022-11-06T19:52:27;30.97;;;17.50;;
47796;SDS011;33558;50.922;14.068;2022-11-06T19:54:54;27.87;;;16.43;;
47796;SDS011;33558;50.922;14.068;2022-11-06T19:57:21;31.00;;;18.10;;
47796;SDS011;33558;50.922;14.068;2022-11-06T19:59:47;32.60;;;17.43;;
47796;SDS011;33558;50.922;14.068;2022-11-06T20:02:14;29.07;;;17.23;;
47796;SDS011;33558;50.922;14.068;2022-11-06T20:04:41;28.37;;;16.23;;
47796;SDS011;33558;50.922;14.068;2022-11-06T20:07:09;27.80;;;17.03;;
47796;SDS011;33558;50.922;14.068;2022-11-06T20:09:36;25.60;;;15.00;;
47796;SDS011;33558;50.922;14.068;2022-11-06T20:12:03;24.80;;;14.87;;
47796;SDS011;33558;50.922;14.068;2022-11-06T20:14:30;25.87;;;16.60;;
47796;SDS011;33558;50.922;14.068;2022-11-06T20:16:57;29.53;;;16.00;;
47796;SDS011;33558;50.922;14.068;2022-11-06T20:19:24;22.73;;;13.97;;
47796;SDS011;33558;50.922;14.068;2022-11-06T20:21:50;32.93;;;18.63;;
47796;SDS011;33558;50.922;14.068;2022-11-06T20:24:18;33.37;;;18.80;;
47796;SDS011;33558;50.922;14.068;2022-11-06T20:26:45;34.53;;;18.47;;
47796;SDS011;33558;50.922;14.068;2022-11-06T20:29:12;35.13;;;18.00;;
47796;SDS011;33558;50.922;14.068;2022-11-06T20:31:41;33.37;;;18.23;;
47796;SDS011;33558;50.922;14.068;2022-11-06T20:34:08;33.63;;;18.07;;
47796;SDS011;33558;50.922;14.068;2022-11-06T20:36:34;30.13;;;17.83;;
47796;SDS011;33558;50.922;14.068;2022-11-06T20:39:01;29.93;;;16.90;;
47796;SDS011;33558;50.922;14.068;2022-11-06T20:41:30;32.70;;;16.90;;
47796;SDS011;33558;50.922;14.068;2022-11-06T20:43:57;28.57;;;16.80;;
47796;SDS011;33558;50.922;14.068;2022-11-06T20:46:24;29.07;;;15.90;;
47796;SDS011;33558;50.922;14.068;2022-11-06T20:48:50;29.57;;;17.30;;
47796;SDS011;33558;50.922;14.068;2022-11-06T20:51:18;25.27;;;16.17;;
47796;SDS011;33558;50.922;14.068;2022-11-06T20:53:46;26.57;;;16.43;;
47796;SDS011;33558;50.922;14.068;2022-11-06T20:56:13;29.93;;;18.00;;
47796;SDS011;33558;50.922;14.068;2022-11-06T20:58:42;29.43;;;17.17;;
47796;SDS011;33558;50.922;14.068;2022-11-06T21:01:10;30.67;;;17.97;;
47796;SDS011;33558;50.922;14.068;2022-11-06T21:03:39;30.50;;;17.90;;
47796;SDS011;33558;50.922;14.068;2022-11-06T21:06:05;30.00;;;17.50;;
47796;SDS011;33558;50.922;14.068;2022-11-06T21:08:33;29.63;;;17.63;;
47796;SDS011;33558;50.922;14.068;2022-11-06T21:11:01;31.33;;;16.50;;
47796;SDS011;33558;50.922;14.068;2022-11-06T21:13:29;27.47;;;15.87;;
47796;SDS011;33558;50.922;14.068;2022-11-06T21:15:58;27.70;;;17.43;;
47796;SDS011;33558;50.922;14.068;2022-11-06T21:18:25;26.57;;;16.67;;
47796;SDS011;33558;50.922;14.068;2022-11-06T21:20:52;26.67;;;15.93;;
47796;SDS011;33558;50.922;14.068;2022-11-06T21:23:19;27.00;;;16.30;;
47796;SDS011;33558;50.922;14.068;2022-11-06T21:25:46;26.93;;;15.70;;
47796;SDS011;33558;50.922;14.068;2022-11-06T21:28:13;26.77;;;16.20;;
47796;SDS011;33558;50.922;14.068;2022-11-06T21:30:40;27.50;;;15.43;;
47796;SDS011;33558;50.922;14.068;2022-11-06T21:33:08;24.70;;;15.97;;
47796;SDS011;33558;50.922;14.068;2022-11-06T21:35:35;29.63;;;15.50;;
47796;SDS011;33558;50.922;14.068;2022-11-06T21:38:02;26.60;;;14.23;;
47796;SDS011;33558;50.922;14.068;2022-11-06T21:40:28;24.17;;;14.43;;
47796;SDS011;33558;50.922;14.068;2022-11-06T21:42:55;22.67;;;14.43;;
47796;SDS011;33558;50.922;14.068;2022-11-06T21:45:22;25.57;;;16.17;;
47796;SDS011;33558;50.922;14.068;2022-11-06T21:47:48;26.40;;;15.93;;
47796;SDS011;33558;50.922;14.068;2022-11-06T21:50:17;25.97;;;16.53;;
47796;SDS011;33558;50.922;14.068;2022-11-06T21:52:44;25.53;;;16.13;;
47796;SDS011;33558;50.922;14.068;2022-11-06T21:55:29;30.13;;;17.37;;
47796;SDS011;33558;50.922;14.068;2022-11-06T21:58:13;28.30;;;16.60;;
47796;SDS011;33558;50.922;14.068;2022-11-06T22:00:39;28.37;;;16.87;;
47796;SDS011;33558;50.922;14.068;2022-11-06T22:03:06;24.57;;;15.53;;
47796;SDS011;33558;50.922;14.068;2022-11-06T22:05:34;26.37;;;15.70;;
47796;SDS011;33558;50.922;14.068;2022-11-06T22:08:01;29.07;;;17.13;;
47796;SDS011;33558;50.922;14.068;2022-11-06T22:10:28;25.50;;;16.00;;
47796;SDS011;33558;50.922;14.068;2022-11-06T22:12:55;28.90;;;16.23;;
47796;SDS011;33558;50.922;14.068;2022-11-06T22:15:21;27.60;;;16.10;;
47796;SDS011;33558;50.922;14.068;2022-11-06T22:17:48;29.20;;;17.03;;
47796;SDS011;33558;50.922;14.068;2022-11-06T22:20:15;25.93;;;16.60;;
47796;SDS011;33558;50.922;14.068;2022-11-06T22:22:43;25.37;;;16.37;;
47796;SDS011;33558;50.922;14.068;2022-11-06T22:25:10;29.53;;;17.47;;
47796;SDS011;33558;50.922;14.068;2022-11-06T22:27:37;27.70;;;15.27;;
47796;SDS011;33558;50.922;14.068;2022-11-06T22:30:04;27.83;;;17.17;;
47796;SDS011;33558;50.922;14.068;2022-11-06T22:32:31;26.17;;;15.37;;
47796;SDS011;33558;50.922;14.068;2022-11-06T22:34:58;25.13;;;15.17;;
47796;SDS011;33558;50.922;14.068;2022-11-06T22:37:25;27.70;;;14.37;;
47796;SDS011;33558;50.922;14.068;2022-11-06T22:39:53;26.40;;;15.77;;
47796;SDS011;33558;50.922;14.068;2022-11-06T22:42:19;24.13;;;14.10;;
47796;SDS011;33558;50.922;14.068;2022-11-06T22:44:46;28.13;;;15.20;;
